createdAt,value
2022-10-11T00:01:05.887Z,11.20
2022-10-11T00:03:54.720Z,11.20
2022-10-11T00:06:43.916Z,11.30
2022-10-11T00:09:32.668Z,11.20
2022-10-11T00:12:21.457Z,11.10
2022-10-11T00:15:15.648Z,11.10
2022-10-11T00:18:05.474Z,11.10
2022-10-11T00:21:03.779Z,11.00
2022-10-11T00:23:52.519Z,11.00
2022-10-11T00:26:46.367Z,11.00
2022-10-11T00:29:35.666Z,11.00
2022-10-11T00:32:25.810Z,11.00
2022-10-11T00:35:14.788Z,11.10
2022-10-11T00:38:03.498Z,10.90
2022-10-11T00:40:52.319Z,10.90
2022-10-11T00:43:42.087Z,11.00
2022-10-11T00:46:34.737Z,10.90
2022-10-11T00:49:36.048Z,11.00
2022-10-11T00:52:31.608Z,10.90
2022-10-11T00:55:23.442Z,10.90
2022-10-11T00:58:14.104Z,10.90
2022-10-11T01:01:03.096Z,10.90
2022-10-11T01:03:51.777Z,10.90
2022-10-11T01:06:42.679Z,10.90
2022-10-11T01:09:31.878Z,10.80
2022-10-11T01:12:24.620Z,10.90
2022-10-11T01:15:18.142Z,10.80
2022-10-11T01:18:13.479Z,10.80
2022-10-11T01:21:08.491Z,10.80
2022-10-11T01:24:35.968Z,10.70
2022-10-11T01:27:39.605Z,10.80
2022-10-11T01:30:31.319Z,10.80
2022-10-11T01:33:32.701Z,10.80
2022-10-11T01:36:29.359Z,10.80
2022-10-11T01:39:24.417Z,10.90
2022-10-11T01:42:14.579Z,10.90
2022-10-11T01:45:03.639Z,10.80
2022-10-11T01:48:08.408Z,10.80
2022-10-11T01:50:58.774Z,10.70
2022-10-11T01:54:05.431Z,10.80
2022-10-11T01:57:14.481Z,10.80
2022-10-11T02:00:12.206Z,10.70
2022-10-11T02:03:21.235Z,10.80
2022-10-11T02:06:14.285Z,10.70
2022-10-11T02:09:13.207Z,10.70
2022-10-11T02:12:06.449Z,10.70
2022-10-11T02:14:57.855Z,10.70
2022-10-11T02:17:50.505Z,10.80
2022-10-11T02:20:42.793Z,10.80
2022-10-11T02:23:35.137Z,10.70
2022-10-11T02:26:26.086Z,10.80
2022-10-11T02:29:17.825Z,10.70
2022-10-11T02:32:08.440Z,10.70
2022-10-11T02:34:59.033Z,10.80
2022-10-11T02:37:58.803Z,10.80
2022-10-11T02:40:51.889Z,10.80
2022-10-11T02:43:44.324Z,10.90
2022-10-11T02:46:34.249Z,10.80
2022-10-11T02:49:23.103Z,10.80
2022-10-11T02:52:11.657Z,10.80
2022-10-11T02:55:01.849Z,10.90
2022-10-11T02:57:50.411Z,10.90
2022-10-11T03:00:39.213Z,10.80
2022-10-11T03:03:27.911Z,10.80
2022-10-11T03:06:16.716Z,10.90
2022-10-11T03:09:09.325Z,10.80
2022-10-11T03:11:59.310Z,10.80
2022-10-11T03:14:47.992Z,10.80
2022-10-11T03:17:37.469Z,10.80
2022-10-11T03:20:26.953Z,10.90
2022-10-11T03:23:15.911Z,10.90
2022-10-11T03:26:05.070Z,10.90
2022-10-11T03:28:55.292Z,11.00
2022-10-11T03:31:43.975Z,11.00
2022-10-11T03:34:32.799Z,10.90
2022-10-11T03:37:21.626Z,10.90
2022-10-11T03:40:11.488Z,11.00
2022-10-11T03:43:00.186Z,11.00
2022-10-11T03:45:50.284Z,11.00
2022-10-11T03:48:39.252Z,11.10
2022-10-11T03:51:28.371Z,11.10
2022-10-11T03:54:16.985Z,11.20
2022-10-11T03:57:05.650Z,11.30
2022-10-11T03:59:54.378Z,11.20
2022-10-11T04:02:44.597Z,11.30
2022-10-11T04:05:33.360Z,11.30
2022-10-11T04:11:11.226Z,11.30
2022-10-11T04:14:00.103Z,11.30
2022-10-11T04:16:48.812Z,11.30
2022-10-11T04:19:38.857Z,11.20
2022-10-11T04:22:27.545Z,11.30
2022-10-11T04:25:16.561Z,11.20
2022-10-11T04:28:05.291Z,11.10
2022-10-11T04:30:53.858Z,11.00
2022-10-11T04:33:42.516Z,11.00
2022-10-11T04:36:33.987Z,11.10
2022-10-11T04:39:23.079Z,11.10
2022-10-11T04:42:12.127Z,11.10
2022-10-11T04:45:00.956Z,11.20
2022-10-11T04:47:50.051Z,11.20
2022-10-11T04:50:39.134Z,11.20
2022-10-11T04:53:30.991Z,11.20
2022-10-11T04:56:20.101Z,11.20
2022-10-11T04:59:09.113Z,11.20
2022-10-11T05:01:58.119Z,11.10
2022-10-11T05:04:46.803Z,11.10
2022-10-11T05:07:35.499Z,11.10
2022-10-11T05:10:25.647Z,11.20
2022-10-11T05:13:14.395Z,11.20
2022-10-11T05:16:08.175Z,11.20
2022-10-11T05:19:02.260Z,11.20
2022-10-11T05:21:50.888Z,11.20
2022-10-11T05:24:39.785Z,11.10
2022-10-11T05:27:29.797Z,11.10
2022-10-11T05:30:18.767Z,11.20
2022-10-11T05:33:07.460Z,11.20
2022-10-11T05:35:56.161Z,11.20
2022-10-11T05:38:45.234Z,11.20
2022-10-11T05:41:34.131Z,11.20
2022-10-11T05:44:24.695Z,11.30
2022-10-11T05:47:13.281Z,11.30
2022-10-11T05:50:02.099Z,11.30
2022-10-11T05:52:50.836Z,11.30
2022-10-11T05:55:40.522Z,11.30
2022-10-11T05:58:29.737Z,11.30
2022-10-11T06:01:22.259Z,11.30
2022-10-11T06:04:11.835Z,11.30
2022-10-11T06:07:00.635Z,11.40
2022-10-11T06:09:49.206Z,11.50
2022-10-11T06:12:38.877Z,11.60
2022-10-11T06:15:27.632Z,11.60
2022-10-11T06:18:17.653Z,11.70
2022-10-11T06:21:06.589Z,11.70
2022-10-11T06:24:00.795Z,11.90
2022-10-11T06:26:50.373Z,11.90
2022-10-11T06:29:39.061Z,12.00
2022-10-11T06:32:28.267Z,12.00
2022-10-11T06:35:18.384Z,12.10
2022-10-11T06:38:07.410Z,12.20
2022-10-11T06:40:56.187Z,12.20
2022-10-11T06:43:45.137Z,12.40
2022-10-11T06:46:34.180Z,12.50
2022-10-11T06:49:23.614Z,12.60
2022-10-11T06:52:14.186Z,12.70
2022-10-11T06:55:02.961Z,12.80
2022-10-11T06:57:51.700Z,12.80
2022-10-11T07:00:40.606Z,12.90
2022-10-11T07:03:30.174Z,13.00
2022-10-11T07:06:21.334Z,13.00
2022-10-11T07:09:11.530Z,13.10
2022-10-11T07:12:00.159Z,13.20
2022-10-11T07:14:48.870Z,13.20
2022-10-11T07:17:37.522Z,13.30
2022-10-11T07:20:30.207Z,13.20
2022-10-11T07:23:19.406Z,13.20
2022-10-11T07:26:11.458Z,13.20
2022-10-11T07:29:00.425Z,13.40
2022-10-11T07:31:49.277Z,13.30
2022-10-11T07:34:38.189Z,13.40
2022-10-11T07:37:27.094Z,13.50
2022-10-11T07:40:16.184Z,13.60
2022-10-11T07:43:06.148Z,13.60
2022-10-11T07:45:55.702Z,13.80
2022-10-11T07:48:44.616Z,14.10
2022-10-11T07:51:34.880Z,14.20
2022-10-11T07:54:23.551Z,14.50
2022-10-11T07:57:12.156Z,14.40
2022-10-11T08:00:07.353Z,14.40
2022-10-11T08:03:02.719Z,14.50
2022-10-11T08:05:55.837Z,14.60
2022-10-11T08:08:44.773Z,14.70
2022-10-11T08:11:39.892Z,14.70
2022-10-11T08:14:28.966Z,14.60
2022-10-11T08:17:19.135Z,14.50
2022-10-11T08:20:08.444Z,14.60
2022-10-11T08:22:57.164Z,14.60
2022-10-11T08:25:48.357Z,14.60
2022-10-11T08:28:37.664Z,14.60
2022-10-11T08:31:30.235Z,14.50
2022-10-11T08:34:20.433Z,14.50
2022-10-11T08:37:13.199Z,14.70
2022-10-11T08:40:03.457Z,14.80
2022-10-11T08:42:58.138Z,14.80
2022-10-11T08:45:50.797Z,14.80
2022-10-11T08:48:43.025Z,14.70
2022-10-11T08:51:38.002Z,14.70
2022-10-11T08:54:36.792Z,14.70
2022-10-11T08:57:28.781Z,14.80
2022-10-11T09:00:20.456Z,14.90
2022-10-11T09:03:22.962Z,15.00
2022-10-11T09:06:22.076Z,15.00
2022-10-11T09:09:39.698Z,15.10
2022-10-11T09:12:40.547Z,15.10
2022-10-11T09:15:39.648Z,15.20
2022-10-11T09:18:42.909Z,15.30
2022-10-11T09:21:40.838Z,15.40
2022-10-11T09:25:01.084Z,15.40
2022-10-11T09:28:04.221Z,15.20
2022-10-11T09:30:55.975Z,15.20
2022-10-11T09:33:47.521Z,15.20
2022-10-11T09:36:42.753Z,15.30
2022-10-11T09:39:34.581Z,15.20
2022-10-11T09:42:25.033Z,15.20
2022-10-11T09:45:17.880Z,15.30
2022-10-11T09:48:08.620Z,15.30
2022-10-11T09:51:03.782Z,15.50
2022-10-11T09:53:56.003Z,15.50
2022-10-11T09:56:46.516Z,15.60
2022-10-11T09:59:37.728Z,15.50
2022-10-11T10:02:27.307Z,15.40
2022-10-11T10:05:20.562Z,15.40
2022-10-11T10:08:30.786Z,15.60
2022-10-11T10:11:21.054Z,15.50
2022-10-11T10:14:22.632Z,15.60
2022-10-11T10:17:18.412Z,15.40
2022-10-11T10:20:08.734Z,15.40
2022-10-11T10:22:57.579Z,15.60
2022-10-11T10:25:51.330Z,15.50
2022-10-11T10:28:40.854Z,15.30
2022-10-11T10:32:01.626Z,15.30
2022-10-11T10:34:59.587Z,15.50
2022-10-11T10:37:54.297Z,15.80
2022-10-11T10:40:45.396Z,16.00
2022-10-11T10:43:36.506Z,16.00
2022-10-11T10:46:42.865Z,16.00
2022-10-11T10:49:53.706Z,15.90
2022-10-11T10:53:05.157Z,15.90
2022-10-11T10:56:01.110Z,15.80
2022-10-11T10:59:04.693Z,15.90
2022-10-11T11:02:06.786Z,16.10
2022-10-11T11:05:16.558Z,16.20
2022-10-11T11:08:14.643Z,16.00
2022-10-11T11:11:12.399Z,15.90
2022-10-11T11:14:11.151Z,15.60
2022-10-11T11:17:07.685Z,15.50
2022-10-11T11:20:10.630Z,15.30
2022-10-11T11:23:06.121Z,15.20
2022-10-11T11:26:04.679Z,15.20
2022-10-11T11:29:15.541Z,15.20
2022-10-11T11:32:19.609Z,15.20
2022-10-11T11:35:17.515Z,15.40
2022-10-11T11:38:14.307Z,15.40
2022-10-11T11:41:11.413Z,15.30
2022-10-11T11:44:03.808Z,15.50
2022-10-11T11:46:57.104Z,15.70
2022-10-11T11:49:50.445Z,15.90
2022-10-11T11:52:44.958Z,15.80
2022-10-11T11:55:45.854Z,15.70
2022-10-11T11:58:45.542Z,15.80
2022-10-11T12:01:38.938Z,15.60
2022-10-11T12:04:31.019Z,15.60
2022-10-11T12:07:22.387Z,15.50
2022-10-11T12:10:23.944Z,15.50
2022-10-11T12:13:21.858Z,15.60
2022-10-11T12:16:14.376Z,15.80
2022-10-11T12:19:05.403Z,15.90
2022-10-11T12:22:36.675Z,15.90
2022-10-11T12:25:44.630Z,15.90
2022-10-11T12:29:03.780Z,15.90
2022-10-11T12:32:33.398Z,15.80
2022-10-11T12:35:48.877Z,15.80
2022-10-11T12:38:40.099Z,15.60
2022-10-11T12:41:51.213Z,15.60
2022-10-11T12:44:40.498Z,15.50
2022-10-11T12:47:43.339Z,15.50
2022-10-11T12:50:41.083Z,15.40
2022-10-11T12:53:42.049Z,15.30
2022-10-11T12:56:45.477Z,15.30
2022-10-11T12:59:34.112Z,15.20
2022-10-11T13:02:30.250Z,15.20
2022-10-11T13:05:26.544Z,15.20
2022-10-11T13:08:20.015Z,15.20
2022-10-11T13:11:13.300Z,15.20
2022-10-11T13:14:11.142Z,15.30
2022-10-11T13:17:06.235Z,15.20
2022-10-11T13:20:01.728Z,15.20
2022-10-11T13:22:54.098Z,15.20
2022-10-11T13:25:43.453Z,15.20
2022-10-11T13:28:36.327Z,15.20
2022-10-11T13:31:26.093Z,15.30
2022-10-11T13:34:17.587Z,15.30
2022-10-11T13:37:09.476Z,15.30
2022-10-11T13:40:00.007Z,15.30
2022-10-11T13:42:50.787Z,15.20
2022-10-11T13:45:41.608Z,15.30
2022-10-11T13:48:32.303Z,15.30
2022-10-11T13:51:36.127Z,15.30
2022-10-11T13:54:24.738Z,15.20
2022-10-11T13:57:15.061Z,15.30
2022-10-11T14:00:08.753Z,15.30
2022-10-11T14:03:03.905Z,15.20
2022-10-11T14:05:57.469Z,15.10
2022-10-11T14:08:49.201Z,15.10
2022-10-11T14:11:40.342Z,15.10
2022-10-11T14:14:43.928Z,15.10
2022-10-11T14:17:43.096Z,15.10
2022-10-11T14:20:40.395Z,15.10
2022-10-11T14:23:29.200Z,15.10
2022-10-11T14:26:19.256Z,15.00
2022-10-11T14:29:13.337Z,15.00
2022-10-11T14:32:06.395Z,15.00
2022-10-11T14:34:55.103Z,15.00
2022-10-11T14:37:43.783Z,15.00
2022-10-11T14:40:33.103Z,14.90
2022-10-11T14:43:21.858Z,14.80
2022-10-11T14:46:19.857Z,14.90
2022-10-11T14:49:15.703Z,14.90
2022-10-11T14:52:06.590Z,14.80
2022-10-11T15:57:21.533Z,14.10
2022-10-11T16:00:11.270Z,14.10
2022-10-11T16:03:02.696Z,14.00
2022-10-11T16:05:51.978Z,14.00
2022-10-11T16:08:41.277Z,14.00
2022-10-11T16:11:30.135Z,14.00
2022-10-11T16:14:20.296Z,13.90
2022-10-11T16:17:09.072Z,13.90
2022-10-11T16:19:58.310Z,13.90
2022-10-11T16:22:47.131Z,13.90
2022-10-11T16:25:36.420Z,13.90
2022-10-11T16:28:25.646Z,13.80
2022-10-11T16:31:20.908Z,13.80
2022-10-11T16:34:09.695Z,13.70
2022-10-11T16:36:58.497Z,13.70
2022-10-11T16:39:47.213Z,13.80
2022-10-11T16:42:36.197Z,13.70
2022-10-11T16:45:25.206Z,13.70
2022-10-11T16:48:15.553Z,13.70
2022-10-11T16:51:09.265Z,13.70
2022-10-11T16:53:58.043Z,13.60
2022-10-11T16:56:46.775Z,13.60
2022-10-11T16:59:35.441Z,13.60
2022-10-11T17:02:31.315Z,13.60
2022-10-11T17:05:22.733Z,13.50
2022-10-11T17:08:11.552Z,13.50
2022-10-11T17:11:00.596Z,13.50
2022-10-11T17:13:50.127Z,13.50
2022-10-11T17:16:39.211Z,13.40
2022-10-11T17:19:27.930Z,13.30
2022-10-11T17:22:20.405Z,13.30
2022-10-11T17:25:09.517Z,13.20
2022-10-11T17:27:58.513Z,13.30
2022-10-11T17:30:54.872Z,13.30
2022-10-11T17:33:43.477Z,13.30
2022-10-11T17:36:34.919Z,13.30
2022-10-11T17:39:25.925Z,13.30
2022-10-11T17:42:14.661Z,13.30
2022-10-11T17:45:03.518Z,13.10
2022-10-11T17:47:52.432Z,13.20
2022-10-11T17:50:46.951Z,13.20
2022-10-11T17:53:38.901Z,13.20
2022-10-11T17:56:35.069Z,13.20
2022-10-11T17:59:28.809Z,13.10
2022-10-11T18:02:17.504Z,13.10
2022-10-11T18:05:07.038Z,13.00
2022-10-11T18:07:56.153Z,13.00
2022-10-11T18:10:47.612Z,13.00
2022-10-11T18:13:38.343Z,13.00
2022-10-11T18:16:29.122Z,13.00
2022-10-11T18:19:17.954Z,12.80
2022-10-11T18:22:07.325Z,12.90
2022-10-11T18:24:56.201Z,12.80
2022-10-11T18:27:44.800Z,12.90
2022-10-11T18:30:35.058Z,12.80
2022-10-11T18:33:23.736Z,12.80
2022-10-11T18:36:13.843Z,12.70
2022-10-11T18:39:05.914Z,12.70
2022-10-11T18:41:54.783Z,12.70
2022-10-11T18:44:43.551Z,12.70
2022-10-11T18:47:33.786Z,12.70
2022-10-11T18:50:22.581Z,12.60
2022-10-11T18:53:11.316Z,12.70
2022-10-11T18:56:01.579Z,12.60
2022-10-11T18:58:51.297Z,12.60
2022-10-11T19:01:42.276Z,12.60
2022-10-11T19:04:34.269Z,12.60
2022-10-11T19:07:23.950Z,12.40
2022-10-11T19:10:12.704Z,12.50
2022-10-11T19:13:01.416Z,12.40
2022-10-11T19:15:53.889Z,12.40
2022-10-11T19:18:44.416Z,12.30
2022-10-11T19:21:35.192Z,12.30
2022-10-11T19:24:26.640Z,12.30
2022-10-11T19:27:15.297Z,12.30
2022-10-11T19:30:04.011Z,12.20
2022-10-11T19:32:52.626Z,12.20
2022-10-11T19:35:42.369Z,12.20
2022-10-11T19:38:33.039Z,12.20
2022-10-11T19:41:22.058Z,12.10
2022-10-11T19:44:11.268Z,12.10
2022-10-11T19:47:04.948Z,12.10
2022-10-11T19:49:53.918Z,12.10
2022-10-11T19:52:45.053Z,12.00
2022-10-11T19:55:37.025Z,12.10
2022-10-11T19:58:25.766Z,12.00
2022-10-11T20:01:17.869Z,12.00
2022-10-11T20:04:08.815Z,12.00
2022-10-11T20:06:57.490Z,12.00
2022-10-11T20:09:46.739Z,11.90
2022-10-11T20:12:36.843Z,11.80
2022-10-11T20:15:25.891Z,11.90
2022-10-11T20:18:15.123Z,11.80
2022-10-11T20:21:06.140Z,11.80
2022-10-11T20:24:01.986Z,11.80
2022-10-11T20:26:50.921Z,11.80
2022-10-11T20:29:41.467Z,11.80
2022-10-11T20:32:30.063Z,11.80
2022-10-11T20:35:18.837Z,11.70
2022-10-11T20:38:11.347Z,11.70
2022-10-11T20:41:00.118Z,11.70
2022-10-11T20:43:50.135Z,11.60
2022-10-11T20:46:40.750Z,11.60
2022-10-11T20:49:29.367Z,11.70
2022-10-11T20:52:18.066Z,11.60
2022-10-11T20:55:07.380Z,11.50
2022-10-11T20:57:56.317Z,11.50
2022-10-11T21:00:45.206Z,11.50
2022-10-11T21:03:35.212Z,11.40
2022-10-11T21:06:23.944Z,11.40
2022-10-11T21:09:15.607Z,11.50
2022-10-11T21:12:06.000Z,11.40
2022-10-11T21:14:54.795Z,11.40
2022-10-11T21:17:43.549Z,11.40
2022-10-11T21:20:33.539Z,11.30
2022-10-11T21:23:22.263Z,11.30
2022-10-11T21:26:13.359Z,11.30
2022-10-11T21:29:04.111Z,11.30
2022-10-11T21:31:52.728Z,11.20
2022-10-11T21:34:41.549Z,11.20
2022-10-11T21:37:31.930Z,11.10
2022-10-11T21:40:20.824Z,11.10
2022-10-11T21:43:09.521Z,11.20
2022-10-11T21:45:58.091Z,11.20
2022-10-11T21:48:47.323Z,11.20
2022-10-11T21:51:36.332Z,11.10
2022-10-11T21:54:26.500Z,11.00
2022-10-11T21:57:15.200Z,11.00
2022-10-11T22:00:04.969Z,11.00
2022-10-11T22:03:01.878Z,11.00
2022-10-11T22:05:50.638Z,10.90
2022-10-11T22:08:39.931Z,10.90
2022-10-11T22:11:30.296Z,11.00
2022-10-11T22:14:19.147Z,11.00
2022-10-11T22:17:07.905Z,11.00
2022-10-11T22:19:56.558Z,10.80
2022-10-11T22:22:45.348Z,10.80
2022-10-11T22:25:36.191Z,10.80
2022-10-11T22:28:26.227Z,10.80
2022-10-11T22:31:16.509Z,10.80
2022-10-11T22:34:05.152Z,10.80
2022-10-11T22:36:53.918Z,10.70
2022-10-11T22:39:42.819Z,10.80
2022-10-11T22:42:31.573Z,10.70
2022-10-11T22:45:21.609Z,10.70
2022-10-11T22:48:10.321Z,10.70
2022-10-11T22:50:59.109Z,10.60
2022-10-11T22:53:47.806Z,10.60
2022-10-11T22:56:36.451Z,10.60
2022-10-11T22:59:25.315Z,10.50
2022-10-11T23:02:15.713Z,10.40
2022-10-11T23:05:05.061Z,10.60
2022-10-11T23:07:53.666Z,10.40
2022-10-11T23:10:42.974Z,10.40
2022-10-11T23:13:32.068Z,10.40
2022-10-11T23:16:21.199Z,10.50
2022-10-11T23:19:11.226Z,10.40
2022-10-11T23:21:59.794Z,10.40
2022-10-11T23:24:48.399Z,10.40
2022-10-11T23:27:37.207Z,10.40
2022-10-11T23:30:26.009Z,10.30
2022-10-11T23:33:14.616Z,10.30
2022-10-11T23:36:05.251Z,10.30
2022-10-11T23:38:55.252Z,10.30
2022-10-11T23:41:44.914Z,10.20
2022-10-11T23:44:34.031Z,10.30
2022-10-11T23:47:22.695Z,10.20
2022-10-11T23:50:11.593Z,10.20
2022-10-11T23:53:01.535Z,10.20
2022-10-11T23:55:50.405Z,10.30
2022-10-11T23:58:39.451Z,10.20
